createdAt,value
2023-02-22T00:01:51.386Z,42.90
2023-02-22T00:04:22.068Z,43.90
2023-02-22T00:06:51.073Z,41.83
2023-02-22T00:09:21.602Z,41.50
2023-02-22T00:11:50.731Z,41.87
2023-02-22T00:14:21.580Z,41.47
2023-02-22T00:16:52.126Z,40.57
2023-02-22T00:19:26.748Z,41.97
2023-02-22T00:21:55.759Z,41.83
2023-02-22T00:24:24.608Z,42.33
2023-02-22T00:26:56.280Z,42.23
2023-02-22T00:29:25.744Z,41.60
2023-02-22T00:31:54.785Z,40.50
2023-02-22T00:34:25.532Z,40.53
2023-02-22T00:36:54.495Z,38.03
2023-02-22T00:39:23.337Z,37.20
2023-02-22T00:41:52.359Z,36.83
2023-02-22T00:44:21.247Z,36.40
2023-02-22T00:46:50.255Z,36.40
2023-02-22T00:49:19.429Z,36.10
2023-02-22T00:51:49.875Z,36.20
2023-02-22T00:54:21.068Z,35.67
2023-02-22T00:56:51.009Z,36.93
2023-02-22T00:59:25.796Z,38.40
2023-02-22T01:01:54.781Z,41.07
2023-02-22T01:04:23.976Z,40.77
2023-02-22T01:06:55.878Z,41.57
2023-02-22T01:09:29.727Z,42.73
2023-02-22T01:11:59.321Z,43.70
2023-02-22T01:14:29.230Z,43.50
2023-02-22T01:16:59.122Z,43.27
2023-02-22T01:19:28.299Z,44.53
2023-02-22T01:22:05.426Z,44.73
2023-02-22T01:24:34.994Z,46.73
2023-02-22T01:27:04.094Z,46.53
2023-02-22T01:29:33.788Z,46.43
2023-02-22T01:32:03.117Z,45.80
2023-02-22T01:34:33.278Z,46.67
2023-02-22T01:37:03.834Z,44.67
2023-02-22T01:39:33.310Z,43.90
2023-02-22T01:42:02.188Z,43.23
2023-02-22T01:44:33.989Z,43.40
2023-02-22T01:47:04.572Z,43.17
2023-02-22T01:49:36.868Z,42.67
2023-02-22T01:52:11.026Z,44.27
2023-02-22T01:54:43.504Z,47.30
2023-02-22T01:57:19.415Z,46.10
2023-02-22T01:59:52.195Z,42.07
2023-02-22T02:02:25.331Z,42.57
2023-02-22T02:04:57.905Z,42.00
2023-02-22T02:07:29.900Z,43.33
2023-02-22T02:10:01.015Z,42.93
2023-02-22T02:12:32.059Z,42.57
2023-02-22T02:15:19.341Z,43.00
2023-02-22T02:18:09.130Z,42.53
2023-02-22T02:20:48.313Z,41.93
2023-02-22T02:23:46.703Z,42.87
2023-02-22T02:26:51.566Z,45.13
2023-02-22T02:29:47.801Z,45.13
2023-02-22T02:32:26.582Z,48.70
2023-02-22T02:35:01.319Z,47.63
2023-02-22T02:37:37.262Z,48.67
2023-02-22T02:40:13.403Z,47.00
2023-02-22T02:42:48.836Z,47.30
2023-02-22T02:45:23.191Z,46.00
2023-02-22T02:48:15.614Z,46.83
2023-02-22T02:50:47.512Z,44.00
2023-02-22T02:53:20.237Z,45.00
2023-02-22T02:55:49.513Z,44.07
2023-02-22T02:58:21.495Z,47.87
2023-02-22T03:00:55.700Z,46.90
2023-02-22T03:03:42.900Z,48.27
2023-02-22T03:06:34.634Z,53.43
2023-02-22T03:09:15.133Z,51.97
2023-02-22T03:11:52.981Z,48.97
2023-02-22T03:14:28.368Z,46.47
2023-02-22T03:17:06.306Z,47.43
2023-02-22T03:19:42.451Z,51.17
2023-02-22T03:22:19.799Z,46.97
2023-02-22T03:24:56.576Z,51.30
2023-02-22T03:27:30.925Z,50.77
2023-02-22T03:30:03.837Z,54.87
2023-02-22T03:32:38.156Z,54.57
2023-02-22T03:35:11.721Z,56.10
2023-02-22T03:37:45.519Z,56.67
2023-02-22T03:40:20.246Z,54.57
2023-02-22T03:42:53.940Z,52.40
2023-02-22T03:45:30.455Z,49.70
2023-02-22T03:48:04.918Z,49.57
2023-02-22T03:50:54.833Z,48.73
2023-02-22T03:53:24.669Z,48.50
2023-02-22T03:55:56.713Z,46.27
2023-02-22T03:58:27.117Z,46.97
2023-02-22T04:00:57.223Z,46.03
2023-02-22T04:03:26.434Z,46.37
2023-02-22T04:05:56.878Z,50.90
2023-02-22T04:08:25.904Z,44.93
2023-02-22T04:10:54.852Z,44.03
2023-02-22T04:13:27.731Z,47.33
2023-02-22T04:15:57.204Z,49.07
2023-02-22T04:18:26.261Z,47.40
2023-02-22T04:20:56.742Z,44.80
2023-02-22T04:23:33.273Z,40.07
2023-02-22T04:26:03.759Z,43.23
2023-02-22T04:28:33.016Z,45.73
2023-02-22T04:31:31.066Z,42.70
2023-02-22T04:34:01.316Z,43.97
2023-02-22T04:36:34.992Z,44.67
2023-02-22T04:39:04.026Z,46.97
2023-02-22T04:41:34.790Z,46.63
2023-02-22T04:44:03.771Z,46.17
2023-02-22T04:46:33.949Z,50.53
2023-02-22T04:49:03.890Z,47.00
2023-02-22T04:51:37.334Z,47.73
2023-02-22T04:54:13.065Z,49.50
2023-02-22T04:56:47.457Z,48.70
2023-02-22T04:59:16.556Z,50.23
2023-02-22T05:01:48.362Z,48.53
2023-02-22T05:04:20.578Z,51.47
2023-02-22T05:06:55.063Z,48.97
2023-02-22T05:09:25.135Z,48.67
2023-02-22T05:12:12.595Z,45.67
2023-02-22T05:14:41.783Z,45.77
2023-02-22T05:17:10.862Z,45.40
2023-02-22T05:19:43.872Z,44.77
2023-02-22T05:22:14.863Z,48.30
2023-02-22T05:24:53.243Z,45.47
2023-02-22T05:27:22.270Z,44.77
2023-02-22T05:29:52.283Z,45.03
2023-02-22T05:32:22.110Z,45.43
2023-02-22T05:34:51.097Z,42.90
2023-02-22T05:37:24.630Z,40.90
2023-02-22T05:39:56.013Z,41.97
2023-02-22T05:42:25.609Z,42.73
2023-02-22T05:44:54.503Z,42.37
2023-02-22T05:47:23.656Z,45.77
2023-02-22T05:49:52.840Z,41.93
2023-02-22T05:52:24.569Z,41.10
2023-02-22T05:54:55.200Z,42.53
2023-02-22T05:57:24.167Z,42.33
2023-02-22T05:59:53.007Z,42.63
2023-02-22T06:02:21.832Z,42.43
2023-02-22T06:04:51.216Z,43.03
2023-02-22T06:07:20.133Z,46.03
2023-02-22T06:09:50.407Z,43.00
2023-02-22T06:12:19.432Z,45.40
2023-02-22T06:14:49.127Z,47.23
2023-02-22T06:17:20.310Z,45.90
2023-02-22T06:19:49.439Z,43.93
2023-02-22T06:22:19.997Z,48.40
2023-02-22T06:24:50.364Z,50.43
2023-02-22T06:27:20.355Z,47.70
2023-02-22T06:29:49.397Z,53.57
2023-02-22T06:32:18.257Z,58.37
2023-02-22T06:34:47.146Z,59.00
2023-02-22T06:37:16.268Z,59.33
2023-02-22T06:39:45.079Z,65.43
2023-02-22T06:42:15.584Z,74.80
2023-02-22T06:44:44.868Z,61.27
2023-02-22T06:47:19.895Z,49.17
2023-02-22T06:49:54.790Z,44.13
2023-02-22T06:52:27.752Z,39.80
2023-02-22T06:54:56.667Z,41.13
2023-02-22T06:57:26.943Z,44.67
2023-02-22T06:59:57.724Z,43.07
2023-02-22T07:02:30.075Z,47.03
2023-02-22T07:05:00.850Z,46.67
2023-02-22T07:07:30.290Z,51.07
2023-02-22T07:09:59.376Z,52.23
2023-02-22T07:12:31.124Z,48.60
2023-02-22T07:15:02.729Z,49.17
2023-02-22T07:17:32.853Z,47.13
2023-02-22T07:20:02.679Z,55.03
2023-02-22T07:22:31.597Z,59.67
2023-02-22T07:25:00.560Z,48.17
2023-02-22T07:27:30.830Z,46.97
2023-02-22T07:29:59.837Z,56.40
2023-02-22T07:32:28.724Z,51.60
2023-02-22T07:34:57.710Z,47.77
2023-02-22T07:37:28.967Z,43.93
2023-02-22T07:39:59.506Z,49.00
2023-02-22T07:42:30.063Z,43.40
2023-02-22T07:44:59.017Z,38.73
2023-02-22T07:47:27.862Z,39.30
2023-02-22T07:49:57.835Z,40.30
2023-02-22T07:52:29.808Z,49.87
2023-02-22T07:55:03.626Z,49.20
2023-02-22T07:57:35.558Z,39.40
2023-02-22T08:00:05.279Z,38.30
2023-02-22T08:02:41.612Z,37.73
2023-02-22T08:05:13.286Z,35.47
2023-02-22T08:07:43.472Z,32.77
2023-02-22T08:10:16.481Z,32.50
2023-02-22T08:12:47.055Z,28.97
2023-02-22T08:15:21.729Z,33.63
2023-02-22T08:17:51.307Z,31.10
2023-02-22T08:20:21.813Z,29.17
2023-02-22T08:22:51.843Z,32.37
2023-02-22T08:25:23.702Z,30.67
2023-02-22T08:27:59.023Z,31.17
2023-02-22T08:30:29.113Z,29.97
2023-02-22T08:33:19.815Z,30.90
2023-02-22T08:35:50.575Z,50.27
2023-02-22T08:38:24.163Z,62.10
2023-02-22T08:40:53.686Z,42.13
2023-02-22T08:43:28.680Z,46.67
2023-02-22T08:45:58.035Z,56.00
2023-02-22T08:48:26.905Z,49.00
2023-02-22T08:50:56.579Z,45.17
2023-02-22T08:53:26.911Z,43.97
2023-02-22T08:55:56.130Z,41.03
2023-02-22T08:58:26.567Z,35.33
2023-02-22T09:00:55.682Z,33.20
2023-02-22T09:03:24.621Z,33.17
2023-02-22T09:05:53.560Z,29.13
2023-02-22T09:08:23.133Z,29.63
2023-02-22T09:10:52.485Z,28.57
2023-02-22T09:13:21.455Z,27.13
2023-02-22T09:15:51.828Z,28.97
2023-02-22T09:18:21.427Z,28.20
2023-02-22T09:20:50.380Z,28.83
2023-02-22T09:23:22.022Z,27.90
2023-02-22T09:25:51.323Z,26.33
2023-02-22T09:28:30.828Z,28.83
2023-02-22T09:31:01.532Z,25.23
2023-02-22T09:33:32.437Z,25.13
2023-02-22T09:36:22.008Z,17.80
2023-02-22T09:38:57.741Z,19.63
2023-02-22T09:41:36.263Z,20.30
2023-02-22T09:44:19.913Z,19.23
2023-02-22T09:46:54.849Z,23.33
2023-02-22T09:49:29.895Z,23.47
2023-02-22T09:52:03.519Z,30.07
2023-02-22T09:54:37.846Z,32.33
2023-02-22T09:57:13.885Z,28.13
2023-02-22T09:59:48.899Z,28.90
2023-02-22T10:02:28.574Z,26.77
2023-02-22T10:05:02.460Z,24.83
2023-02-22T10:07:37.298Z,29.50
2023-02-22T10:10:06.804Z,28.10
2023-02-22T10:12:45.677Z,28.73
2023-02-22T10:15:51.727Z,28.20
2023-02-22T10:19:00.511Z,28.13
2023-02-22T10:21:46.289Z,27.03
2023-02-22T10:24:27.756Z,28.80
2023-02-22T10:27:00.111Z,45.07
2023-02-22T10:29:36.823Z,34.17
2023-02-22T10:32:07.553Z,29.53
2023-02-22T10:34:44.884Z,36.80
2023-02-22T10:37:25.697Z,32.00
2023-02-22T10:40:01.505Z,30.23
2023-02-22T10:42:31.701Z,30.40
2023-02-22T10:45:00.747Z,45.50
2023-02-22T10:47:30.638Z,30.47
2023-02-22T10:50:02.456Z,30.60
2023-02-22T10:52:34.059Z,31.40
2023-02-22T10:55:15.287Z,30.20
2023-02-22T10:57:48.421Z,32.60
2023-02-22T11:00:26.486Z,34.03
2023-02-22T11:02:58.375Z,32.47
2023-02-22T11:05:37.030Z,31.70
2023-02-22T11:08:26.337Z,30.47
2023-02-22T11:11:24.995Z,29.70
2023-02-22T11:13:57.337Z,31.27
2023-02-22T11:16:32.804Z,30.27
2023-02-22T11:19:24.175Z,28.67
2023-02-22T11:21:58.737Z,31.00
2023-02-22T11:24:40.258Z,31.87
2023-02-22T11:27:28.626Z,37.70
2023-02-22T11:30:10.459Z,35.97
2023-02-22T11:32:49.258Z,33.07
2023-02-22T11:35:31.924Z,31.50
2023-02-22T11:38:21.706Z,31.37
2023-02-22T11:41:20.713Z,23.40
2023-02-22T11:43:52.077Z,30.10
2023-02-22T11:46:23.833Z,24.93
2023-02-22T11:48:59.822Z,20.60
2023-02-22T11:51:45.755Z,12.63
2023-02-22T11:54:48.866Z,10.53
2023-02-22T11:57:31.420Z,9.60
2023-02-22T12:00:23.733Z,8.73
2023-02-22T12:03:50.716Z,7.10
2023-02-22T12:06:35.727Z,6.50
2023-02-22T12:09:16.060Z,7.47
2023-02-22T12:11:57.512Z,7.00
2023-02-22T12:14:39.666Z,8.10
2023-02-22T12:17:24.124Z,7.90
2023-02-22T12:19:56.121Z,7.10
2023-02-22T12:22:29.216Z,6.20
2023-02-22T12:25:10.326Z,8.17
2023-02-22T12:27:44.309Z,7.97
2023-02-22T12:30:23.768Z,7.80
2023-02-22T12:32:55.323Z,6.90
2023-02-22T12:35:26.451Z,6.07
2023-02-22T12:38:04.449Z,6.77
2023-02-22T12:40:40.254Z,7.40
2023-02-22T12:43:16.905Z,6.27
2023-02-22T12:46:11.657Z,6.70
2023-02-22T12:48:47.401Z,7.60
2023-02-22T12:51:31.666Z,7.67
2023-02-22T12:54:07.892Z,7.10
2023-02-22T12:56:41.205Z,7.00
2023-02-22T12:59:19.456Z,6.95
2023-02-22T13:01:56.459Z,6.70
2023-02-22T13:04:25.941Z,8.23
2023-02-22T13:07:12.897Z,8.43
2023-02-22T13:10:09.521Z,7.77
2023-02-22T13:12:51.358Z,6.57
2023-02-22T13:15:27.031Z,8.40
2023-02-22T13:18:07.906Z,8.90
2023-02-22T13:20:42.562Z,6.90
2023-02-22T13:23:17.491Z,6.03
2023-02-22T13:25:58.248Z,8.07
2023-02-22T13:28:37.873Z,6.50
2023-02-22T13:31:23.601Z,7.90
2023-02-22T13:34:14.077Z,7.07
2023-02-22T13:37:00.479Z,7.17
2023-02-22T13:40:02.357Z,7.50
2023-02-22T13:43:03.801Z,7.33
2023-02-22T13:46:14.655Z,7.37
2023-02-22T13:49:12.594Z,8.00
2023-02-22T13:51:53.134Z,9.30
2023-02-22T13:54:29.811Z,7.60
2023-02-22T13:56:59.725Z,7.93
2023-02-22T13:59:34.372Z,9.40
2023-02-22T14:02:08.238Z,6.83
2023-02-22T14:04:44.327Z,7.73
2023-02-22T14:07:56.365Z,7.70
2023-02-22T14:10:48.225Z,8.57
2023-02-22T14:13:18.525Z,7.60
2023-02-22T14:16:22.674Z,7.80
2023-02-22T14:19:06.671Z,8.83
2023-02-22T14:21:38.456Z,9.57
2023-02-22T14:24:13.929Z,7.90
2023-02-22T14:26:55.226Z,11.47
2023-02-22T14:29:30.114Z,8.27
2023-02-22T14:32:08.006Z,8.47
2023-02-22T14:34:47.010Z,6.40
2023-02-22T14:37:21.180Z,7.83
2023-02-22T14:39:53.727Z,7.00
2023-02-22T14:42:30.032Z,7.60
2023-02-22T14:45:02.860Z,10.87
2023-02-22T14:47:49.840Z,7.73
2023-02-22T14:50:24.924Z,7.90
2023-02-22T14:53:04.668Z,8.03
2023-02-22T14:55:40.045Z,10.30
2023-02-22T14:58:13.506Z,11.37
2023-02-22T15:00:46.022Z,9.83
2023-02-22T15:03:32.932Z,10.37
2023-02-22T15:06:12.964Z,11.67
2023-02-22T15:08:48.986Z,9.90
2023-02-22T15:11:25.871Z,9.13
2023-02-22T15:13:58.577Z,9.73
2023-02-22T15:16:31.881Z,9.20
2023-02-22T15:19:06.601Z,9.80
2023-02-22T15:21:36.850Z,9.93
2023-02-22T15:24:09.351Z,10.23
2023-02-22T15:27:02.526Z,9.47
2023-02-22T15:29:39.257Z,9.90
2023-02-22T15:32:22.230Z,9.73
2023-02-22T15:34:57.201Z,8.67
2023-02-22T15:37:36.840Z,8.90
2023-02-22T15:40:32.065Z,9.83
2023-02-22T15:43:28.684Z,8.60
2023-02-22T15:46:50.552Z,8.43
2023-02-22T15:49:25.130Z,8.20
2023-02-22T15:52:08.602Z,8.87
2023-02-22T15:54:45.016Z,10.47
2023-02-22T15:57:30.136Z,11.63
2023-02-22T15:59:59.895Z,9.60
2023-02-22T16:02:39.122Z,10.43
2023-02-22T16:08:00.127Z,16.90
2023-02-22T16:10:34.074Z,22.27
2023-02-22T16:13:34.466Z,17.13
2023-02-22T16:16:07.842Z,16.50
2023-02-22T16:18:38.556Z,21.13
2023-02-22T16:21:12.020Z,21.43
2023-02-22T16:23:49.374Z,25.50
2023-02-22T16:26:37.032Z,40.27
2023-02-22T16:29:11.423Z,39.80
2023-02-22T16:31:41.933Z,54.13
2023-02-22T16:34:11.182Z,55.53
2023-02-22T16:36:42.519Z,74.63
2023-02-22T16:39:16.075Z,120.20
2023-02-22T16:41:45.044Z,120.63
2023-02-22T16:44:19.539Z,103.07
2023-02-22T16:46:48.642Z,126.90
2023-02-22T16:49:17.463Z,113.17
2023-02-22T16:51:48.891Z,92.13
2023-02-22T16:54:29.404Z,65.13
2023-02-22T16:57:00.496Z,56.23
2023-02-22T16:59:34.270Z,52.70
2023-02-22T17:02:07.952Z,44.90
2023-02-22T17:04:36.869Z,43.47
2023-02-22T17:07:05.700Z,49.33
2023-02-22T17:09:39.701Z,53.60
2023-02-22T17:12:09.827Z,50.83
2023-02-22T17:14:41.210Z,47.37
2023-02-22T17:17:12.404Z,50.80
2023-02-22T17:19:41.421Z,46.60
2023-02-22T17:22:17.739Z,54.83
2023-02-22T17:24:46.780Z,72.63
2023-02-22T17:27:17.363Z,66.50
2023-02-22T17:29:49.542Z,68.13
2023-02-22T17:32:19.492Z,99.20
2023-02-22T17:34:50.073Z,96.87
2023-02-22T17:37:19.356Z,103.13
2023-02-22T17:39:48.352Z,86.07
2023-02-22T17:42:19.738Z,61.60
2023-02-22T17:44:53.423Z,72.07
2023-02-22T17:47:23.769Z,70.00
2023-02-22T17:49:52.990Z,51.77
2023-02-22T17:52:22.946Z,56.83
2023-02-22T17:54:52.648Z,53.47
2023-02-22T17:57:21.913Z,57.93
2023-02-22T17:59:52.437Z,49.67
2023-02-22T18:02:21.996Z,40.90
2023-02-22T18:04:56.353Z,35.40
2023-02-22T18:07:31.719Z,37.07
2023-02-22T18:10:15.148Z,34.73
2023-02-22T18:12:48.894Z,32.37
2023-02-22T18:15:27.119Z,30.00
2023-02-22T18:17:58.625Z,30.50
2023-02-22T18:20:31.971Z,30.00
2023-02-22T18:23:03.361Z,27.67
2023-02-22T18:25:40.835Z,26.20
2023-02-22T18:28:13.739Z,22.23
2023-02-22T18:30:47.550Z,22.33
2023-02-22T18:33:22.025Z,33.03
2023-02-22T18:36:00.178Z,29.03
2023-02-22T18:38:36.623Z,28.17
2023-02-22T18:41:07.848Z,28.43
2023-02-22T18:43:39.190Z,26.00
2023-02-22T18:46:13.880Z,27.37
2023-02-22T18:48:43.251Z,25.83
2023-02-22T18:51:14.036Z,38.27
2023-02-22T18:53:47.119Z,32.13
2023-02-22T18:56:22.240Z,29.47
2023-02-22T18:59:02.514Z,29.07
2023-02-22T19:01:39.352Z,27.67
2023-02-22T19:04:13.030Z,33.30
2023-02-22T19:06:48.999Z,31.37
2023-02-22T19:09:34.597Z,31.80
2023-02-22T19:12:17.959Z,34.03
2023-02-22T19:14:58.323Z,34.83
2023-02-22T19:17:41.759Z,37.20
2023-02-22T19:20:14.466Z,35.90
2023-02-22T19:22:43.455Z,34.37
2023-02-22T19:25:12.792Z,32.47
2023-02-22T19:27:46.774Z,32.00
2023-02-22T19:30:17.358Z,32.00
2023-02-22T19:32:48.267Z,34.53
2023-02-22T19:35:26.479Z,35.17
2023-02-22T19:37:56.614Z,36.27
2023-02-22T19:40:28.016Z,35.23
2023-02-22T19:42:59.987Z,33.00
2023-02-22T19:45:28.944Z,31.87
2023-02-22T19:47:59.727Z,30.30
2023-02-22T19:50:28.791Z,30.27
2023-02-22T19:53:04.896Z,37.30
2023-02-22T19:55:34.343Z,33.40
2023-02-22T19:58:06.476Z,31.40
2023-02-22T20:00:46.516Z,29.73
2023-02-22T20:06:27.650Z,30.17
2023-02-22T20:08:57.869Z,30.03
2023-02-22T20:11:30.394Z,33.37
2023-02-22T20:14:28.676Z,40.00
2023-02-22T20:16:59.245Z,33.07
2023-02-22T20:20:02.247Z,30.17
2023-02-22T20:22:31.262Z,25.90
2023-02-22T20:25:00.106Z,30.40
2023-02-22T20:27:29.083Z,54.20
2023-02-22T20:29:58.100Z,45.57
2023-02-22T20:32:32.243Z,49.17
2023-02-22T20:35:02.938Z,96.87
2023-02-22T20:37:33.092Z,56.17
2023-02-22T20:40:05.329Z,62.93
2023-02-22T20:42:34.996Z,69.23
2023-02-22T20:45:06.313Z,74.53
2023-02-22T20:47:35.525Z,72.57
2023-02-22T20:50:07.565Z,82.43
2023-02-22T20:52:54.968Z,86.17
2023-02-22T20:55:23.930Z,75.07
2023-02-22T20:57:53.488Z,57.40
2023-02-22T21:00:22.662Z,46.60
2023-02-22T21:02:54.392Z,38.20
2023-02-22T21:05:24.830Z,34.57
2023-02-22T21:07:58.635Z,31.27
2023-02-22T21:10:30.775Z,28.67
2023-02-22T21:12:59.914Z,29.93
2023-02-22T21:15:29.745Z,32.40
2023-02-22T21:17:58.830Z,35.73
2023-02-22T21:20:29.351Z,36.23
2023-02-22T21:22:58.420Z,36.73
2023-02-22T21:25:29.805Z,35.17
2023-02-22T21:27:58.783Z,35.57
2023-02-22T21:30:29.576Z,34.83
2023-02-22T21:32:58.694Z,34.03
2023-02-22T21:35:29.313Z,33.67
2023-02-22T21:38:02.203Z,33.17
2023-02-22T21:43:29.223Z,31.03
2023-02-22T21:46:06.527Z,32.33
2023-02-22T21:48:36.993Z,31.83
2023-02-22T21:51:14.722Z,33.17
2023-02-22T21:53:54.092Z,36.97
2023-02-22T21:56:27.841Z,34.87
2023-02-22T21:59:00.154Z,38.13
2023-02-22T22:01:29.781Z,38.37
2023-02-22T22:04:01.738Z,46.20
2023-02-22T22:06:36.014Z,55.43
2023-02-22T22:09:18.367Z,76.80
2023-02-22T22:11:49.824Z,134.77
2023-02-22T22:14:26.036Z,118.20
2023-02-22T22:16:58.743Z,71.17
2023-02-22T22:19:30.752Z,37.70
2023-02-22T22:22:01.830Z,34.57
2023-02-22T22:24:32.365Z,35.13
2023-02-22T22:27:03.922Z,37.47
2023-02-22T22:29:34.680Z,40.53
2023-02-22T22:32:03.773Z,55.40
2023-02-22T22:34:34.599Z,46.87
2023-02-22T22:37:05.113Z,42.33
2023-02-22T22:39:34.079Z,51.87
2023-02-22T22:42:02.972Z,55.60
2023-02-22T22:44:41.689Z,55.73
2023-02-22T22:47:12.392Z,57.87
2023-02-22T22:49:42.926Z,73.27
2023-02-22T22:52:14.861Z,84.63
2023-02-22T22:54:44.593Z,93.37
2023-02-22T22:57:13.847Z,88.60
2023-02-22T22:59:42.823Z,83.33
2023-02-22T23:02:12.203Z,92.50
2023-02-22T23:04:41.137Z,93.17
2023-02-22T23:07:10.003Z,71.03
2023-02-22T23:09:41.758Z,64.70
2023-02-22T23:12:16.891Z,98.33
2023-02-22T23:14:47.274Z,72.43
2023-02-22T23:17:31.415Z,97.67
2023-02-22T23:20:01.154Z,84.40
2023-02-22T23:22:30.227Z,75.67
2023-02-22T23:25:01.306Z,81.33
2023-02-22T23:27:30.560Z,93.83
2023-02-22T23:29:59.505Z,69.67
2023-02-22T23:32:28.592Z,66.73
2023-02-22T23:34:57.569Z,61.43
2023-02-22T23:37:26.486Z,90.13
2023-02-22T23:39:55.582Z,77.60
2023-02-22T23:42:26.160Z,105.00
2023-02-22T23:44:55.173Z,126.97
2023-02-22T23:47:24.967Z,152.93
2023-02-22T23:49:54.744Z,140.43
2023-02-22T23:52:29.609Z,154.00
2023-02-22T23:55:20.711Z,149.70
2023-02-22T23:57:51.110Z,156.73
